หน้าหลัก
METAR-TAF:

METAR-TAF

ท่าอากาศยาน :

Naval Outlying Landing Field Imperial Beach (Ream Field)

Imperial Beach, แคลิฟอร์เนีย, สหรัฐอเมริกา

ละติจูด: 32-33-47N, ลองจิจูด: 117-06-36W, ความสูง: 7 ม.

การสังเกตสภาพอากาศปัจจุบัน

รายงานได้ทำขึ้นเมื่อ 2 ชั่วโมงและ 22 นาทีที่แล้ว ณ เวลา 13:53 UTC
ลม 5 นอตจากใต้
อุณหภูมิ 16°C
ความชื้น 77%
ความกดอากาศ 1008 hPa
ทัศนวิสัย: 14.5 กม.
มีเมฆมาก มืดครึ้มที่ความสูง 1700 ฟุต

METAR: KNRS 181353Z 19005KT 9SM OVC017 16/12 A2977 RMK AO2 SLP082 T01610122 $

เวลา: 09:15 (16:15 UTC)


TAF: หายไป

สังเกตการณ์สภาพอากาศและพยากรณ์อากาศของสนามบินมากกว่า 4000 แห่ง (รายงาน METAR และ TAF).

สถานีที่ดูได้จะแสดงไว้ด้วยจุดสีเหลืองและสีแดงบนแผนที่.

เลื่อนเมาส์ไปเหนือจุดเพื่อดูชื่อสถานี.

แล้วคลิกเพื่อดูสังเกตการณ์และการพยากรณ์สภาพอากาศ.

ในการเปลี่ยนแผนที่: คลิกที่ปุ่มสีเขียวที่มีกากบาทสีดำเพื่อซูมเข้า; ที่ปุ่มสีเขียวที่มีขีดเพื่อซูมออก; หรือที่ลูกศรสีเขียวเพื่อไปยังแผนที่ที่อยู่ติดกัน.


METAR-TAF: